Time;durP1;ratioP1;P1;durP2;ratioP2;P2;SDS_P1;SDS_P2;PMS_P1;PMS_P2;Temp;Humidity;BMP_temperature;BMP_pressure;BME280_temperature;BME280_humidity;BME280_pressure;Samples;Min_cycle;Max_cycle;Signal;HPM_P1;HPM_P2
2023/05/25 00:00:44;;;;;;;4.80;3.40;;;17.80;82.90;;;;;;5058548;28;20458;-84
2023/05/25 00:03:10;;;;;;;5.17;3.73;;;17.80;82.90;;;;;;5058527;28;20425;-84
2023/05/25 00:05:38;;;;;;;4.83;3.40;;;17.80;82.90;;;;;;5058440;28;20460;-84
2023/05/25 00:08:06;;;;;;;6.17;3.73;;;17.80;82.90;;;;;;5074743;28;20866;-84
2023/05/25 00:10:32;;;;;;;7.30;4.10;;;17.80;82.90;;;;;;5075453;28;20506;-84
2023/05/25 00:13:00;;;;;;;4.07;3.57;;;17.80;82.80;;;;;;5075917;28;20413;-84
2023/05/25 00:15:28;;;;;;;5.43;4.03;;;17.70;82.70;;;;;;5075705;28;20437;-85
2023/05/25 00:17:54;;;;;;;4.30;3.27;;;17.70;82.70;;;;;;5075298;28;20415;-84
2023/05/25 00:20:23;;;;;;;4.47;3.20;;;17.70;82.70;;;;;;5042007;28;20413;-84
2023/05/25 00:22:48;;;;;;;6.13;3.17;;;17.70;82.80;;;;;;5041617;28;21087;-84
2023/05/25 00:25:19;;;;;;;6.77;3.83;;;17.70;82.70;;;;;;5016055;28;20875;-84
2023/05/25 00:27:45;;;;;;;6.37;3.60;;;17.70;83.60;;;;;;5005841;28;20461;-85
2023/05/25 00:30:14;;;;;;;4.70;3.50;;;17.70;82.80;;;;;;5038396;28;20509;-84
2023/05/25 00:32:40;;;;;;;4.90;3.20;;;17.70;82.70;;;;;;5021722;28;20774;-84
2023/05/25 00:35:06;;;;;;;5.00;3.17;;;17.70;82.70;;;;;;5022258;28;20432;-84
2023/05/25 00:37:32;;;;;;;8.90;3.60;;;17.60;82.60;;;;;;5038330;28;20485;-85
2023/05/25 00:40:00;;;;;;;3.93;3.27;;;17.60;82.60;;;;;;5021724;28;20453;-84
2023/05/25 00:42:27;;;;;;;5.70;3.70;;;17.60;82.60;;;;;;5038025;28;20504;-86
2023/05/25 00:44:53;;;;;;;4.77;3.27;;;17.60;82.60;;;;;;5021918;28;20437;-84
2023/05/25 00:47:19;;;;;;;6.73;3.43;;;17.60;82.50;;;;;;5005286;28;20449;-85
2023/05/25 00:49:47;;;;;;;6.17;4.10;;;17.60;82.60;;;;;;5021539;28;20426;-85
2023/05/25 00:52:14;;;;;;;5.17;3.87;;;17.60;82.60;;;;;;5021379;28;20479;-85
2023/05/25 00:54:42;;;;;;;3.63;3.27;;;17.50;82.40;;;;;;5021946;28;20489;-85
2023/05/25 00:57:09;;;;;;;6.43;3.80;;;17.50;82.40;;;;;;5005336;28;20769;-84
2023/05/25 00:59:40;;;;;;;7.63;3.57;;;17.50;82.40;;;;;;5037821;28;20840;-85
2023/05/25 01:02:10;;;;;;;4.93;3.80;;;17.50;82.40;;;;;;5038061;28;20403;-84
2023/05/25 01:04:48;;;;;;;7.67;3.73;;;17.50;82.40;;;;;;5037627;28;20430;-84
2023/05/25 01:07:21;;;;;;;4.87;4.30;;;17.50;82.30;;;;;;5054831;28;20430;-85
2023/05/25 01:10:00;;;;;;;4.00;3.60;;;17.50;82.20;;;;;;5021180;28;20907;-84
2023/05/25 01:12:30;;;;;;;3.90;3.20;;;17.50;82.30;;;;;;5004936;28;20446;-84
2023/05/25 01:14:58;;;;;;;8.33;3.73;;;17.40;82.20;;;;;;5037547;28;20882;-84
2023/05/25 01:17:27;;;;;;;3.37;3.03;;;17.40;82.20;;;;;;5037685;28;20433;-84
2023/05/25 01:19:53;;;;;;;5.80;2.87;;;17.40;82.10;;;;;;5021507;28;20423;-84
2023/05/25 01:22:25;;;;;;;4.90;3.57;;;17.40;82.10;;;;;;5021465;28;20475;-85
2023/05/25 01:25:03;;;;;;;6.10;3.60;;;17.40;82.10;;;;;;5054843;28;20476;-85
2023/05/25 01:27:42;;;;;;;6.30;3.30;;;17.40;82.10;;;;;;5037371;28;20929;-84
2023/05/25 01:30:13;;;;;;;4.27;3.03;;;17.40;82.10;;;;;;5034084;28;20472;-84
2023/05/25 01:32:44;;;;;;;5.07;3.50;;;17.40;82.10;;;;;;5034051;28;20425;-83
2023/05/25 01:35:18;;;;;;;7.57;4.00;;;17.30;82.00;;;;;;5001721;28;20393;-85
2023/05/25 01:37:50;;;;;;;6.40;3.97;;;17.30;82.10;;;;;;5034975;28;20423;-85
2023/05/25 01:40:21;;;;;;;4.60;3.47;;;17.30;82.00;;;;;;5001287;28;20887;-84
2023/05/25 01:42:47;;;;;;;5.50;3.10;;;17.30;82.00;;;;;;5001030;28;20489;-85
2023/05/25 01:45:16;;;;;;;4.00;3.43;;;17.30;82.00;;;;;;5017497;28;20179;-84
2023/05/25 01:47:56;;;;;;;4.13;3.47;;;17.30;82.10;;;;;;5001218;28;20191;-84
2023/05/25 01:50:37;;;;;;;5.37;3.70;;;17.20;81.90;;;;;;5017588;28;20467;-84
2023/05/25 01:53:12;;;;;;;4.80;4.00;;;17.20;81.90;;;;;;5017479;28;20472;-85
2023/05/25 01:55:52;;;;;;;4.63;3.47;;;17.20;81.90;;;;;;5017687;28;20472;-85
2023/05/25 01:58:22;;;;;;;4.37;3.33;;;17.20;82.00;;;;;;5040724;28;20406;-84
2023/05/25 02:00:50;;;;;;;6.17;4.07;;;17.20;82.00;;;;;;5020670;28;20448;-85
2023/05/25 02:03:22;;;;;;;4.43;3.60;;;17.20;81.90;;;;;;5054634;28;20401;-84
2023/05/25 02:05:51;;;;;;;5.47;3.40;;;17.20;82.00;;;;;;5004361;28;20544;-85
2023/05/25 02:08:19;;;;;;;4.10;3.20;;;17.20;81.90;;;;;;5020388;28;20515;-84
2023/05/25 02:10:45;;;;;;;5.20;3.33;;;17.20;81.90;;;;;;5020649;28;20465;-84
2023/05/25 02:13:16;;;;;;;6.93;4.10;;;17.10;81.80;;;;;;5004209;28;20540;-85
2023/05/25 02:15:42;;;;;;;4.03;3.40;;;17.10;81.90;;;;;;5036904;28;20474;-85
2023/05/25 02:18:08;;;;;;;4.73;3.70;;;17.10;81.90;;;;;;5021116;28;20438;-84
2023/05/25 02:20:36;;;;;;;4.73;3.53;;;17.10;81.90;;;;;;5058094;28;20227;-85
2023/05/25 02:23:04;;;;;;;4.43;3.90;;;17.10;81.90;;;;;;5040982;28;20405;-84
2023/05/25 02:25:32;;;;;;;4.27;3.70;;;17.10;81.90;;;;;;5040850;28;20425;-85
2023/05/25 02:28:00;;;;;;;4.63;3.43;;;17.00;81.80;;;;;;5024372;28;20456;-84
2023/05/25 02:30:26;;;;;;;7.80;3.67;;;17.10;81.90;;;;;;5040609;28;20461;-85
2023/05/25 02:32:57;;;;;;;8.40;4.00;;;17.00;81.90;;;;;;5040750;28;20475;-84
2023/05/25 02:35:26;;;;;;;4.40;3.57;;;17.00;81.80;;;;;;5024223;28;20474;-84
2023/05/25 02:37:52;;;;;;;5.43;3.43;;;17.00;81.80;;;;;;5024038;28;20417;-84
2023/05/25 02:40:18;;;;;;;5.53;3.93;;;17.00;81.80;;;;;;5024153;28;20440;-84
2023/05/25 02:42:46;;;;;;;5.33;3.87;;;17.00;81.90;;;;;;5024610;28;20445;-84
2023/05/25 02:45:12;;;;;;;4.70;4.10;;;17.00;81.90;;;;;;5024115;28;20492;-85
2023/05/25 02:47:40;;;;;;;5.10;3.70;;;17.00;81.90;;;;;;5040552;28;20477;-84
2023/05/25 02:50:06;;;;;;;6.17;3.40;;;17.00;81.90;;;;;;5040208;28;20472;-85
2023/05/25 02:52:37;;;;;;;5.27;3.63;;;16.90;81.80;;;;;;5023893;28;20748;-84
2023/05/25 02:55:04;;;;;;;4.23;3.50;;;16.90;81.80;;;;;;5023629;28;20443;-85
2023/05/25 02:57:37;;;;;;;5.90;3.70;;;16.90;81.90;;;;;;5040830;28;20225;-84
2023/05/25 03:00:06;;;;;;;4.80;4.37;;;16.90;81.90;;;;;;5040308;28;20750;-85
2023/05/25 03:02:35;;;;;;;4.73;3.53;;;16.90;81.90;;;;;;5040053;28;20448;-85
2023/05/25 03:05:03;;;;;;;4.43;4.00;;;16.90;81.90;;;;;;5023528;28;20411;-83
2023/05/25 03:07:48;;;;;;;6.73;4.00;;;16.90;81.90;;;;;;5040111;28;20428;-85
2023/05/25 03:10:14;;;;;;;5.13;4.10;;;16.90;81.90;;;;;;5023226;28;20475;-85
2023/05/25 03:12:42;;;;;;;6.90;4.37;;;16.80;81.90;;;;;;5039904;28;20196;-85
2023/05/25 03:15:11;;;;;;;5.57;3.83;;;16.80;81.90;;;;;;5023348;28;20788;-85
2023/05/25 03:17:38;;;;;;;4.90;3.63;;;16.80;81.90;;;;;;5023460;28;20419;-84
2023/05/25 03:20:09;;;;;;;6.60;3.73;;;16.80;81.90;;;;;;5039800;28;20425;-84
2023/05/25 03:22:36;;;;;;;5.93;4.10;;;16.80;81.90;;;;;;5039668;28;20449;-84
2023/05/25 03:25:07;;;;;;;3.93;3.37;;;16.70;81.80;;;;;;5039638;28;20416;-84
2023/05/25 03:27:33;;;;;;;6.03;3.80;;;16.80;81.90;;;;;;5023343;28;20417;-84
2023/05/25 03:30:02;;;;;;;6.20;3.67;;;16.70;81.80;;;;;;5042684;28;20471;-84
2023/05/25 03:32:31;;;;;;;5.53;3.70;;;16.70;81.90;;;;;;5042870;28;20955;-83
2023/05/25 03:34:59;;;;;;;4.70;4.10;;;16.70;81.90;;;;;;5042919;28;20451;-85
2023/05/25 03:37:25;;;;;;;6.47;4.10;;;16.70;81.90;;;;;;5042906;28;20492;-84
2023/05/25 03:39:51;;;;;;;5.10;3.87;;;16.70;81.90;;;;;;5059373;28;20937;-84
2023/05/25 03:42:19;;;;;;;8.90;4.10;;;16.70;81.90;;;;;;5059219;28;20578;-84
2023/05/25 03:44:49;;;;;;;5.03;4.10;;;16.70;82.00;;;;;;5076263;28;20431;-84
2023/05/25 03:47:15;;;;;;;8.67;3.80;;;16.60;81.90;;;;;;5075793;28;20481;-84
2023/05/25 03:49:43;;;;;;;6.40;4.70;;;16.70;82.00;;;;;;5042755;28;20504;-84
2023/05/25 03:52:09;;;;;;;7.17;4.47;;;16.60;81.90;;;;;;5026274;28;20431;-84
2023/05/25 03:54:35;;;;;;;7.50;4.10;;;16.60;81.90;;;;;;5042615;28;20469;-85
2023/05/25 03:57:02;;;;;;;6.53;4.60;;;16.60;81.90;;;;;;5042710;28;20436;-84
2023/05/25 03:59:30;;;;;;;5.00;4.27;;;16.60;81.90;;;;;;5058988;28;20444;-84
2023/05/25 04:01:58;;;;;;;8.10;4.70;;;16.60;81.90;;;;;;5059156;28;20502;-84
2023/05/25 04:04:29;;;;;;;8.43;5.50;;;16.60;81.90;;;;;;5058975;28;20455;-85
2023/05/25 04:06:57;;;;;;;8.47;4.50;;;16.60;81.90;;;;;;5042421;28;20465;-84
2023/05/25 04:09:25;;;;;;;6.00;4.43;;;16.60;82.00;;;;;;5025803;28;20432;-84
2023/05/25 04:11:56;;;;;;;6.43;4.30;;;16.50;81.80;;;;;;5058858;28;20800;-84
2023/05/25 04:14:24;;;;;;;4.63;4.23;;;16.50;81.90;;;;;;5058798;28;20446;-83
2023/05/25 04:16:52;;;;;;;5.97;4.37;;;16.50;81.90;;;;;;5058779;28;20874;-84
2023/05/25 04:19:19;;;;;;;7.63;4.37;;;16.50;81.90;;;;;;5058778;28;20434;-84
2023/05/25 04:21:46;;;;;;;4.60;4.10;;;16.50;82.10;;;;;;5042107;28;20431;-83
2023/05/25 04:24:12;;;;;;;5.70;4.23;;;16.50;82.10;;;;;;5041915;28;20430;-84
2023/05/25 04:26:42;;;;;;;7.47;4.63;;;16.50;82.20;;;;;;5042854;28;20429;-83
2023/05/25 04:29:12;;;;;;;8.57;4.33;;;16.50;82.50;;;;;;5042036;28;20423;-84
2023/05/25 04:32:04;;;;;;;6.30;4.67;;;16.50;82.20;;;;;;5054696;28;20467;-84
2023/05/25 04:35:02;;;;;;;4.73;3.97;;;16.40;82.20;;;;;;5053083;28;20435;-83
2023/05/25 04:37:39;;;;;;;5.97;4.67;;;16.40;82.30;;;;;;5026716;28;20459;-84
2023/05/25 04:40:12;;;;;;;5.20;4.20;;;16.40;82.40;;;;;;5041670;28;20505;-84
2023/05/25 04:42:41;;;;;;;9.63;4.03;;;16.40;82.40;;;;;;5041273;28;20418;-85
2023/05/25 04:45:16;;;;;;;5.03;4.40;;;16.40;82.50;;;;;;5041909;28;20422;-84
2023/05/25 04:47:46;;;;;;;5.60;4.13;;;16.40;82.60;;;;;;5057848;28;20982;-85
2023/05/25 04:50:13;;;;;;;4.70;3.90;;;16.40;82.60;;;;;;5041432;28;20790;-85
2023/05/25 04:52:41;;;;;;;7.50;4.13;;;16.40;82.70;;;;;;5041502;28;20427;-85
2023/05/25 04:55:09;;;;;;;6.30;4.63;;;16.40;82.80;;;;;;5041537;28;20515;-85
2023/05/25 04:57:42;;;;;;;6.13;4.17;;;16.30;82.70;;;;;;5040994;28;20420;-85
2023/05/25 05:00:11;;;;;;;4.27;3.87;;;16.30;82.80;;;;;;5005747;28;20430;-85
2023/05/25 05:02:39;;;;;;;5.27;4.40;;;16.30;82.90;;;;;;5038207;28;20435;-85
2023/05/25 05:05:06;;;;;;;5.27;4.23;;;16.30;83.00;;;;;;5021372;28;20506;-85
2023/05/25 05:07:36;;;;;;;5.57;4.30;;;16.30;83.00;;;;;;5021540;28;20964;-84
2023/05/25 05:10:02;;;;;;;5.33;3.97;;;16.30;83.10;;;;;;5021411;28;21047;-84
2023/05/25 05:12:31;;;;;;;6.57;4.00;;;16.30;83.20;;;;;;5037707;28;20439;-85
2023/05/25 05:14:59;;;;;;;4.83;3.60;;;16.30;83.30;;;;;;5005408;28;20448;-85
2023/05/25 05:17:32;;;;;;;5.77;4.00;;;16.30;83.40;;;;;;5038011;28;20405;-85
2023/05/25 05:19:59;;;;;;;5.50;4.20;;;16.30;83.40;;;;;;5021581;28;20439;-85
2023/05/25 05:22:28;;;;;;;5.57;3.60;;;16.30;83.50;;;;;;5022042;28;20419;-85
2023/05/25 05:24:58;;;;;;;5.60;3.60;;;16.30;83.60;;;;;;5005031;28;20422;-86
2023/05/25 05:27:27;;;;;;;6.40;4.40;;;16.30;83.70;;;;;;5021053;28;20996;-85
2023/05/25 05:30:00;;;;;;;4.60;3.60;;;16.20;83.60;;;;;;5017768;28;20740;-85
2023/05/25 05:32:27;;;;;;;4.80;3.73;;;16.20;83.60;;;;;;5017855;28;20505;-85
2023/05/25 05:34:54;;;;;;;5.47;3.60;;;16.20;83.70;;;;;;5017595;28;20818;-85
2023/05/25 05:37:52;;;;;;;6.93;3.90;;;16.20;83.80;;;;;;5017583;28;20439;-84
2023/05/25 05:40:18;;;;;;;5.37;4.57;;;16.20;83.90;;;;;;5001502;28;20486;-85
2023/05/25 05:42:45;;;;;;;5.13;3.63;;;16.20;83.90;;;;;;5017534;28;21003;-84
2023/05/25 05:45:17;;;;;;;7.00;3.80;;;16.20;84.00;;;;;;5033957;28;20402;-85
2023/05/25 05:47:43;;;;;;;6.00;3.87;;;16.20;84.10;;;;;;5017888;28;20422;-84
2023/05/25 05:50:11;;;;;;;8.20;4.40;;;16.20;84.10;;;;;;5001317;28;20481;-84
2023/05/25 05:52:39;;;;;;;3.97;3.53;;;16.20;84.20;;;;;;5003771;28;20449;-85
2023/05/25 05:55:06;;;;;;;7.30;4.20;;;16.20;84.20;;;;;;5041332;28;20422;-84
2023/05/25 05:57:37;;;;;;;7.00;3.73;;;16.20;84.30;;;;;;5008416;28;20469;-85
2023/05/25 06:00:06;;;;;;;5.40;3.73;;;16.20;84.30;;;;;;5030685;28;20449;-85
2023/05/25 06:02:44;;;;;;;8.90;4.50;;;16.20;84.40;;;;;;5065178;28;20769;-85
2023/05/25 06:05:15;;;;;;;9.53;3.50;;;16.20;84.40;;;;;;5047097;28;20513;-85
2023/05/25 06:07:41;;;;;;;4.70;3.67;;;16.20;84.50;;;;;;5047255;28;20500;-85
2023/05/25 06:10:11;;;;;;;4.13;3.37;;;16.20;85.30;;;;;;5063689;28;20483;-86
2023/05/25 06:12:37;;;;;;;5.40;3.73;;;16.10;84.50;;;;;;5047986;28;20468;-84
2023/05/25 06:15:05;;;;;;;8.53;4.20;;;16.20;84.70;;;;;;5030554;28;20471;-84
2023/05/25 06:17:36;;;;;;;4.60;4.10;;;16.20;84.70;;;;;;5080130;28;20516;-84
2023/05/25 06:20:05;;;;;;;4.47;3.77;;;16.20;84.80;;;;;;5031463;28;20413;-87
2023/05/25 06:22:32;;;;;;;5.00;4.20;;;16.20;84.90;;;;;;5028531;28;20437;-85
2023/05/25 06:25:03;;;;;;;7.63;4.00;;;16.10;84.80;;;;;;5011523;28;20473;-85
2023/05/25 06:27:29;;;;;;;7.70;4.00;;;16.10;84.80;;;;;;5043661;28;20482;-85
2023/05/25 06:29:57;;;;;;;5.57;4.23;;;16.20;85.00;;;;;;5026932;28;20811;-85
2023/05/25 06:32:27;;;;;;;9.20;4.60;;;16.10;84.90;;;;;;5043550;28;20427;-85
2023/05/25 06:34:53;;;;;;;7.30;4.20;;;16.10;85.00;;;;;;5027255;28;20415;-85
2023/05/25 06:37:23;;;;;;;6.10;4.30;;;16.10;85.00;;;;;;5043515;28;20419;-85
2023/05/25 06:39:49;;;;;;;7.03;4.07;;;16.20;85.10;;;;;;5043338;28;20479;-84
2023/05/25 06:42:15;;;;;;;8.00;4.47;;;16.10;85.10;;;;;;5043193;28;20434;-85
2023/05/25 06:44:53;;;;;;;6.50;3.80;;;16.10;85.10;;;;;;5044103;28;20168;-86
2023/05/25 06:47:19;;;;;;;5.37;4.27;;;16.10;85.10;;;;;;5027060;28;20969;-85
2023/05/25 06:49:48;;;;;;;7.50;3.80;;;16.10;85.10;;;;;;5026613;28;20521;-85
2023/05/25 06:52:14;;;;;;;6.40;3.87;;;16.10;85.30;;;;;;5023488;28;20863;-84
2023/05/25 06:54:42;;;;;;;6.60;3.97;;;16.20;85.40;;;;;;5023295;28;20434;-84
2023/05/25 06:57:08;;;;;;;6.93;4.10;;;16.20;85.50;;;;;;5023629;28;20420;-86
2023/05/25 06:59:34;;;;;;;5.70;3.43;;;16.20;85.60;;;;;;5007575;28;20434;-85
2023/05/25 07:02:02;;;;;;;5.37;4.30;;;16.20;85.60;;;;;;5007287;28;20429;-84
2023/05/25 07:04:28;;;;;;;7.97;4.10;;;16.20;85.60;;;;;;5004770;28;20749;-86
2023/05/25 07:06:54;;;;;;;5.53;3.30;;;16.20;85.70;;;;;;5020318;28;20438;-84
2023/05/25 07:09:21;;;;;;;7.20;3.87;;;16.20;85.70;;;;;;5036560;28;20416;-85
2023/05/25 07:11:46;;;;;;;5.50;4.00;;;16.20;85.70;;;;;;5003558;28;20475;-84
2023/05/25 07:14:12;;;;;;;7.40;4.63;;;16.20;85.70;;;;;;5020422;28;20434;-84
2023/05/25 07:16:38;;;;;;;6.47;4.30;;;16.20;85.80;;;;;;5020413;28;20416;-86
2023/05/25 07:19:07;;;;;;;10.73;4.43;;;16.20;85.90;;;;;;5020132;28;20584;-84
2023/05/25 07:21:35;;;;;;;6.10;3.67;;;16.20;85.90;;;;;;5040542;28;20528;-85
2023/05/25 07:24:01;;;;;;;8.00;3.50;;;16.20;85.90;;;;;;5043496;28;20180;-84
2023/05/25 07:26:27;;;;;;;6.27;4.00;;;16.20;86.10;;;;;;5043253;28;20463;-84
2023/05/25 07:28:53;;;;;;;7.57;4.07;;;16.20;86.10;;;;;;5059785;28;20482;-85
2023/05/25 07:31:19;;;;;;;6.97;4.40;;;16.20;86.10;;;;;;5059694;28;20469;-85
2023/05/25 07:33:45;;;;;;;11.33;4.47;;;16.30;86.30;;;;;;5043258;28;20558;-84
2023/05/25 07:36:14;;;;;;;10.07;4.20;;;16.30;86.20;;;;;;5043541;28;20434;-84
2023/05/25 07:38:40;;;;;;;8.47;4.23;;;16.30;86.30;;;;;;5042563;28;20545;-84
2023/05/25 07:41:09;;;;;;;5.50;3.90;;;16.30;86.30;;;;;;5026583;28;20423;-84
2023/05/25 07:43:36;;;;;;;8.77;4.00;;;16.30;86.20;;;;;;5059339;28;20755;-84
2023/05/25 07:46:04;;;;;;;5.30;4.00;;;16.30;86.20;;;;;;5043074;28;20421;-84
2023/05/25 07:48:30;;;;;;;7.40;3.97;;;16.40;86.30;;;;;;5042821;28;20519;-83
2023/05/25 07:50:56;;;;;;;5.80;3.90;;;16.40;86.50;;;;;;5026100;28;20561;-84
2023/05/25 07:53:24;;;;;;;6.20;3.93;;;16.40;86.50;;;;;;5059253;28;20899;-85
2023/05/25 07:55:53;;;;;;;8.00;4.30;;;16.40;87.20;;;;;;5059326;28;20422;-84
2023/05/25 07:58:21;;;;;;;6.73;4.20;;;16.50;87.30;;;;;;5042326;28;20419;-84
2023/05/25 08:00:48;;;;;;;5.60;3.60;;;16.50;86.50;;;;;;5059288;28;20483;-84
2023/05/25 08:03:15;;;;;;;4.30;3.60;;;16.50;86.50;;;;;;5042469;28;20481;-84
2023/05/25 08:05:42;;;;;;;4.37;3.50;;;16.50;86.40;;;;;;5042529;28;20418;-84
2023/05/25 08:08:09;;;;;;;7.50;4.33;;;16.50;86.40;;;;;;5025990;28;20476;-84
2023/05/25 08:10:35;;;;;;;7.07;4.00;;;16.50;86.40;;;;;;5042459;28;20827;-84
2023/05/25 08:13:01;;;;;;;6.20;3.80;;;16.60;86.50;;;;;;5076314;28;20480;-83
2023/05/25 08:15:30;;;;;;;5.93;4.20;;;16.60;86.50;;;;;;5041541;28;20460;-84
2023/05/25 08:17:58;;;;;;;7.20;4.47;;;16.60;86.60;;;;;;5075951;28;20804;-85
2023/05/25 08:20:24;;;;;;;7.10;3.67;;;16.60;86.60;;;;;;5024831;28;20926;-84
2023/05/25 08:22:52;;;;;;;8.27;3.90;;;16.60;86.50;;;;;;5022320;28;20421;-84
2023/05/25 08:25:18;;;;;;;7.03;4.00;;;16.70;86.60;;;;;;5039225;28;20495;-84
2023/05/25 08:27:44;;;;;;;7.23;4.47;;;16.60;86.30;;;;;;5038732;28;20449;-84
2023/05/25 08:30:10;;;;;;;7.37;4.20;;;16.70;86.40;;;;;;5038673;28;20780;-84
2023/05/25 08:32:36;;;;;;;6.37;4.17;;;16.70;86.40;;;;;;5005808;28;20439;-84
2023/05/25 08:35:08;;;;;;;4.53;3.40;;;16.70;86.40;;;;;;5022608;28;20412;-83
2023/05/25 08:37:37;;;;;;;7.00;4.77;;;16.70;86.50;;;;;;5022027;28;20439;-83
2023/05/25 08:40:04;;;;;;;4.80;4.07;;;16.80;86.60;;;;;;5005803;28;20424;-84
2023/05/25 08:42:30;;;;;;;7.07;3.90;;;16.70;86.40;;;;;;5006063;28;20510;-85
2023/05/25 08:44:57;;;;;;;6.80;4.30;;;16.80;86.50;;;;;;5022028;28;20853;-83
2023/05/25 08:47:30;;;;;;;10.13;4.13;;;16.80;86.60;;;;;;5038536;28;20448;-86
2023/05/25 08:50:04;;;;;;;8.83;4.13;;;16.80;86.50;;;;;;5038746;28;20460;-84
2023/05/25 08:52:32;;;;;;;9.60;4.30;;;16.90;86.50;;;;;;5005643;28;20532;-84
2023/05/25 08:55:06;;;;;;;7.47;4.30;;;16.90;86.40;;;;;;5038333;28;20918;-83
2023/05/25 08:58:00;;;;;;;5.17;4.10;;;16.90;86.40;;;;;;5037966;28;20430;-83
2023/05/25 09:00:33;;;;;;;7.47;4.90;;;16.90;86.40;;;;;;5018624;28;20431;-83
2023/05/25 09:03:14;;;;;;;6.13;3.97;;;17.00;86.50;;;;;;5018191;28;20445;-86
2023/05/25 09:05:41;;;;;;;4.50;3.90;;;17.00;86.50;;;;;;5034456;28;20425;-88
2023/05/25 09:08:10;;;;;;;8.57;4.67;;;17.00;86.50;;;;;;5001974;28;20465;-83
2023/05/25 09:10:39;;;;;;;7.80;4.10;;;17.00;86.40;;;;;;5018416;28;20453;-82
2023/05/25 09:13:07;;;;;;;6.90;4.77;;;17.00;86.30;;;;;;5035723;28;20518;-83
2023/05/25 09:15:33;;;;;;;5.93;4.47;;;17.10;86.30;;;;;;5001922;28;20504;-84
2023/05/25 09:17:59;;;;;;;5.33;4.83;;;17.10;86.30;;;;;;5002186;28;20429;-85
2023/05/25 09:20:30;;;;;;;5.80;4.63;;;17.20;86.30;;;;;;5001845;28;20439;-84
2023/05/25 09:23:02;;;;;;;6.97;4.50;;;17.20;86.20;;;;;;5018007;28;20741;-84
2023/05/25 09:25:29;;;;;;;7.23;5.07;;;17.20;86.20;;;;;;5018119;28;20450;-84
2023/05/25 09:27:59;;;;;;;6.30;5.70;;;17.20;86.10;;;;;;5017686;28;20891;-84
2023/05/25 09:30:31;;;;;;;7.73;5.67;;;17.30;86.30;;;;;;5001359;28;20480;-84
2023/05/25 09:33:16;;;;;;;6.97;5.77;;;17.30;86.40;;;;;;5035179;28;20407;-85
2023/05/25 09:35:43;;;;;;;10.23;5.90;;;17.30;86.30;;;;;;5017967;28;20465;-84
2023/05/25 09:38:13;;;;;;;9.57;7.10;;;17.30;86.30;;;;;;5035088;28;20441;-83
2023/05/25 09:40:39;;;;;;;6.50;5.80;;;17.40;86.30;;;;;;5035029;28;20475;-84
2023/05/25 09:43:10;;;;;;;7.27;5.80;;;17.40;86.30;;;;;;5034053;28;20435;-83
2023/05/25 09:45:39;;;;;;;8.40;6.37;;;17.40;86.30;;;;;;5033989;28;20880;-85
2023/05/25 09:48:06;;;;;;;6.27;5.67;;;17.40;86.20;;;;;;5001765;28;20462;-84
2023/05/25 09:50:32;;;;;;;6.77;6.07;;;17.50;86.20;;;;;;5017585;28;20294;-84
2023/05/25 09:52:59;;;;;;;10.43;6.83;;;17.50;86.00;;;;;;5001295;28;20533;-84
2023/05/25 09:55:29;;;;;;;9.20;7.10;;;17.50;85.90;;;;;;5001386;28;20419;-85
2023/05/25 09:57:56;;;;;;;8.73;7.30;;;17.60;86.00;;;;;;5001531;28;20442;-84
2023/05/25 10:00:23;;;;;;;8.30;7.57;;;17.60;85.90;;;;;;5017743;28;20527;-89
2023/05/25 10:02:49;;;;;;;8.93;8.03;;;17.60;85.90;;;;;;5001339;28;20453;-88
2023/05/25 10:05:16;;;;;;;9.57;7.40;;;17.60;85.90;;;;;;5001515;28;20603;-84
2023/05/25 10:07:44;;;;;;;7.73;7.03;;;17.70;85.90;;;;;;5017988;28;20563;-85
2023/05/25 10:10:14;;;;;;;8.83;8.03;;;17.70;85.80;;;;;;5017362;28;20450;-84
2023/05/25 10:12:44;;;;;;;8.10;7.40;;;17.70;85.90;;;;;;5017461;28;20433;-84
2023/05/25 10:15:12;;;;;;;8.60;7.80;;;17.80;85.80;;;;;;5017842;28;20461;-85
2023/05/25 10:17:53;;;;;;;9.23;8.33;;;17.80;85.90;;;;;;5001172;28;20430;-83
2023/05/25 10:20:23;;;;;;;8.77;7.87;;;17.80;85.90;;;;;;5001103;28;20496;-84
2023/05/25 10:23:16;;;;;;;7.40;6.40;;;17.90;86.00;;;;;;5034386;28;20450;-84
2023/05/25 10:25:46;;;;;;;8.50;7.47;;;17.90;86.00;;;;;;5017341;28;20741;-84
2023/05/25 10:28:30;;;;;;;12.43;7.77;;;18.00;86.10;;;;;;5034351;28;20797;-84
2023/05/25 10:30:58;;;;;;;7.70;7.00;;;18.00;85.90;;;;;;5017147;28;20496;-85
2023/05/25 10:33:24;;;;;;;7.70;7.07;;;18.00;85.80;;;;;;5034278;28;20491;-84
2023/05/25 10:35:53;;;;;;;8.90;8.00;;;18.10;85.80;;;;;;5000986;28;20763;-85
2023/05/25 10:38:19;;;;;;;7.53;6.83;;;18.10;85.70;;;;;;5017302;28;20448;-87
2023/05/25 10:40:51;;;;;;;7.47;6.83;;;18.10;85.60;;;;;;5020319;28;20588;-85
2023/05/25 10:43:20;;;;;;;7.80;7.10;;;18.20;85.50;;;;;;5004674;28;20475;-86
2023/05/25 10:45:47;;;;;;;8.03;7.27;;;18.20;85.40;;;;;;5020922;28;20449;-84
2023/05/25 10:48:14;;;;;;;7.40;6.70;;;18.20;85.30;;;;;;5004658;28;20505;-84
2023/05/25 10:50:40;;;;;;;8.43;6.90;;;18.30;85.30;;;;;;5004347;28;20486;-83
2023/05/25 10:53:15;;;;;;;7.00;6.30;;;18.30;85.20;;;;;;5021034;28;20411;-85
2023/05/25 10:55:50;;;;;;;7.63;6.93;;;18.40;85.10;;;;;;5020846;28;20458;-86
2023/05/25 10:58:17;;;;;;;8.00;7.30;;;18.40;85.00;;;;;;5007016;28;20433;-83
2023/05/25 11:01:05;;;;;;;8.20;7.50;;;18.40;84.90;;;;;;5040387;28;20427;-84
2023/05/25 11:03:43;;;;;;;9.03;8.20;;;18.50;85.00;;;;;;5023780;28;20463;-84
2023/05/25 11:06:20;;;;;;;9.23;7.93;;;18.50;84.80;;;;;;5040303;28;20524;-84
2023/05/25 11:08:49;;;;;;;9.23;8.20;;;18.50;84.60;;;;;;5023653;28;20413;-83
2023/05/25 11:11:18;;;;;;;9.10;8.27;;;18.60;84.70;;;;;;5039888;28;20456;-84
2023/05/25 11:13:46;;;;;;;7.90;7.20;;;18.60;84.70;;;;;;5040242;28;20537;-84
2023/05/25 11:16:13;;;;;;;8.80;8.00;;;18.60;84.60;;;;;;5023626;28;20426;-83
2023/05/25 11:18:54;;;;;;;8.57;7.40;;;18.70;84.60;;;;;;5024251;28;20460;-84
2023/05/25 11:21:25;;;;;;;8.77;7.83;;;18.70;84.50;;;;;;5040081;28;20509;-84
2023/05/25 11:24:01;;;;;;;8.77;7.87;;;18.70;84.40;;;;;;5039904;28;20786;-84
2023/05/25 11:26:29;;;;;;;12.43;8.77;;;18.80;84.50;;;;;;5040096;28;20445;-83
2023/05/25 11:29:00;;;;;;;8.50;7.70;;;18.80;84.40;;;;;;5010826;28;20446;-85
2023/05/25 11:31:31;;;;;;;8.90;8.13;;;18.80;84.30;;;;;;5038710;28;20481;-85
2023/05/25 11:34:03;;;;;;;9.80;8.80;;;18.80;84.30;;;;;;5038952;28;20419;-84
2023/05/25 11:36:32;;;;;;;9.20;8.27;;;18.90;84.30;;;;;;5038952;28;20981;-84
2023/05/25 11:39:02;;;;;;;8.43;7.70;;;18.90;84.30;;;;;;5022117;28;20428;-84
2023/05/25 11:41:31;;;;;;;8.60;7.77;;;18.90;84.30;;;;;;5022176;28;20756;-84
2023/05/25 11:44:04;;;;;;;8.87;8.07;;;19.00;84.30;;;;;;5021898;28;20918;-83
2023/05/25 11:46:37;;;;;;;8.40;7.60;;;18.90;84.10;;;;;;5022303;28;20426;-83
2023/05/25 11:49:05;;;;;;;9.77;7.60;;;19.00;84.10;;;;;;5055466;28;20425;-85
2023/05/25 11:51:36;;;;;;;9.53;8.37;;;19.00;83.90;;;;;;5054736;28;20484;-84
2023/05/25 11:54:02;;;;;;;10.60;8.00;;;19.10;84.20;;;;;;5055047;28;20549;-84
2023/05/25 11:56:32;;;;;;;8.17;7.37;;;19.10;84.10;;;;;;5055097;28;20441;-84
2023/05/25 11:58:58;;;;;;;8.57;7.27;;;19.10;83.80;;;;;;5005435;28;20449;-84
2023/05/25 12:01:26;;;;;;;8.30;7.27;;;19.10;83.60;;;;;;5021847;28;20750;-84
2023/05/25 12:03:54;;;;;;;7.83;7.00;;;19.10;83.60;;;;;;5038343;28;20567;-84
2023/05/25 12:06:27;;;;;;;10.93;8.73;;;19.20;83.80;;;;;;5032243;28;20494;-85
2023/05/25 12:08:53;;;;;;;10.13;7.97;;;19.20;83.60;;;;;;5042646;28;20433;-87
2023/05/25 12:11:27;;;;;;;10.43;7.07;;;19.20;83.40;;;;;;5042239;28;20477;-85
2023/05/25 12:13:56;;;;;;;7.10;6.40;;;19.30;83.50;;;;;;5058993;28;20457;-83
2023/05/25 12:16:28;;;;;;;8.13;7.43;;;19.30;83.60;;;;;;5059005;28;20448;-84
2023/05/25 12:18:57;;;;;;;6.90;6.30;;;19.30;83.50;;;;;;5042286;28;20491;-84
2023/05/25 12:21:23;;;;;;;8.53;6.70;;;19.30;83.50;;;;;;5058735;28;20453;-85
2023/05/25 12:23:53;;;;;;;8.33;6.40;;;19.30;83.40;;;;;;5076451;28;20418;-84
2023/05/25 12:26:22;;;;;;;7.13;6.43;;;19.30;83.50;;;;;;5055782;28;20467;-83
2023/05/25 12:29:02;;;;;;;8.87;7.33;;;19.40;83.40;;;;;;5018956;28;20432;-85
2023/05/25 12:31:40;;;;;;;8.03;6.47;;;19.40;83.20;;;;;;5019212;28;20479;-84
2023/05/25 12:34:16;;;;;;;7.80;6.97;;;19.40;83.20;;;;;;5002507;28;20431;-84
2023/05/25 12:36:51;;;;;;;7.83;7.07;;;19.40;83.40;;;;;;5002646;28;20481;-84
2023/05/25 12:39:30;;;;;;;11.60;6.73;;;19.40;83.20;;;;;;5018718;28;20522;-84
2023/05/25 12:42:01;;;;;;;8.60;6.90;;;19.40;83.10;;;;;;5002767;28;20421;-86
2023/05/25 12:44:36;;;;;;;7.73;6.60;;;19.40;83.10;;;;;;5018462;28;20456;-84
2023/05/25 12:47:10;;;;;;;8.23;7.50;;;19.50;83.30;;;;;;5035850;28;20868;-84
2023/05/25 12:49:42;;;;;;;10.87;7.00;;;19.50;83.10;;;;;;5002405;28;20438;-85
2023/05/25 12:52:11;;;;;;;7.87;7.17;;;19.50;83.20;;;;;;5034975;28;20442;-85
2023/05/25 12:54:43;;;;;;;8.10;7.30;;;19.50;83.00;;;;;;5035705;28;20427;-85
2023/05/25 12:57:14;;;;;;;10.77;7.13;;;19.50;82.90;;;;;;5018361;28;20502;-84